sensor_id;sensor_type;location;lat;lon;timestamp;temperature;humidity
21403;DHT22;10862;51.886;17.078;2022-08-01T00:00:22;15.90;99.90
21403;DHT22;10862;51.886;17.078;2022-08-01T00:02:48;16.00;99.90
21403;DHT22;10862;51.886;17.078;2022-08-01T00:05:13;16.00;99.90
21403;DHT22;10862;51.886;17.078;2022-08-01T00:07:39;15.70;99.90
21403;DHT22;10862;51.886;17.078;2022-08-01T00:10:06;15.60;99.90
21403;DHT22;10862;51.886;17.078;2022-08-01T00:12:32;15.40;99.90
21403;DHT22;10862;51.886;17.078;2022-08-01T00:14:57;15.40;99.90
21403;DHT22;10862;51.886;17.078;2022-08-01T00:17:23;15.40;99.90
21403;DHT22;10862;51.886;17.078;2022-08-01T00:19:48;15.30;99.90
21403;DHT22;10862;51.886;17.078;2022-08-01T00:22:14;15.20;99.90
21403;DHT22;10862;51.886;17.078;2022-08-01T00:24:39;15.20;99.90
21403;DHT22;10862;51.886;17.078;2022-08-01T00:27:05;15.30;99.90
21403;DHT22;10862;51.886;17.078;2022-08-01T00:29:30;15.60;99.90
21403;DHT22;10862;51.886;17.078;2022-08-01T00:31:56;15.70;99.90
21403;DHT22;10862;51.886;17.078;2022-08-01T00:34:21;15.90;99.90
21403;DHT22;10862;51.886;17.078;2022-08-01T00:36:47;15.90;99.90
21403;DHT22;10862;51.886;17.078;2022-08-01T00:39:12;16.10;99.90
21403;DHT22;10862;51.886;17.078;2022-08-01T00:41:38;16.00;99.90
21403;DHT22;10862;51.886;17.078;2022-08-01T00:44:06;16.10;99.90
21403;DHT22;10862;51.886;17.078;2022-08-01T00:46:32;16.20;99.90
21403;DHT22;10862;51.886;17.078;2022-08-01T00:48:58;16.30;99.90
21403;DHT22;10862;51.886;17.078;2022-08-01T00:51:24;16.40;99.90
21403;DHT22;10862;51.886;17.078;2022-08-01T00:53:50;16.20;99.90
21403;DHT22;10862;51.886;17.078;2022-08-01T00:56:16;16.20;99.90
21403;DHT22;10862;51.886;17.078;2022-08-01T00:58:42;16.20;99.90
21403;DHT22;10862;51.886;17.078;2022-08-01T01:01:09;16.30;99.90
21403;DHT22;10862;51.886;17.078;2022-08-01T01:03:34;16.20;99.90
21403;DHT22;10862;51.886;17.078;2022-08-01T01:08:46;16.30;99.90
21403;DHT22;10862;51.886;17.078;2022-08-01T01:11:21;16.30;99.90
21403;DHT22;10862;51.886;17.078;2022-08-01T01:13:52;16.30;99.90
21403;DHT22;10862;51.886;17.078;2022-08-01T01:16:19;16.20;99.90
21403;DHT22;10862;51.886;17.078;2022-08-01T01:18:46;16.20;99.90
21403;DHT22;10862;51.886;17.078;2022-08-01T01:23:46;16.20;99.90
21403;DHT22;10862;51.886;17.078;2022-08-01T01:31:18;16.10;99.90
21403;DHT22;10862;51.886;17.078;2022-08-01T01:33:45;16.10;99.90
21403;DHT22;10862;51.886;17.078;2022-08-01T01:36:11;16.10;99.90
21403;DHT22;10862;51.886;17.078;2022-08-01T01:38:42;16.00;99.90
21403;DHT22;10862;51.886;17.078;2022-08-01T01:41:08;16.00;99.90
21403;DHT22;10862;51.886;17.078;2022-08-01T01:43:35;15.90;99.90
21403;DHT22;10862;51.886;17.078;2022-08-01T01:46:02;15.90;99.90
21403;DHT22;10862;51.886;17.078;2022-08-01T01:48:28;15.90;99.90
21403;DHT22;10862;51.886;17.078;2022-08-01T01:50:54;16.00;99.90
21403;DHT22;10862;51.886;17.078;2022-08-01T01:53:21;15.90;99.90
21403;DHT22;10862;51.886;17.078;2022-08-01T01:55:48;15.80;99.90
21403;DHT22;10862;51.886;17.078;2022-08-01T01:58:15;15.80;99.90
21403;DHT22;10862;51.886;17.078;2022-08-01T02:00:41;15.80;99.90
21403;DHT22;10862;51.886;17.078;2022-08-01T02:03:09;15.80;99.90
21403;DHT22;10862;51.886;17.078;2022-08-01T02:05:35;15.70;99.90
21403;DHT22;10862;51.886;17.078;2022-08-01T02:08:01;15.80;99.90
21403;DHT22;10862;51.886;17.078;2022-08-01T02:10:27;15.80;99.90
21403;DHT22;10862;51.886;17.078;2022-08-01T02:12:53;15.90;99.90
21403;DHT22;10862;51.886;17.078;2022-08-01T02:15:19;15.90;99.90
21403;DHT22;10862;51.886;17.078;2022-08-01T02:17:47;15.80;99.90
21403;DHT22;10862;51.886;17.078;2022-08-01T02:20:13;15.90;99.90
21403;DHT22;10862;51.886;17.078;2022-08-01T02:22:44;15.90;99.90
21403;DHT22;10862;51.886;17.078;2022-08-01T02:25:25;15.90;99.90
21403;DHT22;10862;51.886;17.078;2022-08-01T02:27:54;15.90;99.90
21403;DHT22;10862;51.886;17.078;2022-08-01T02:30:22;15.90;99.90
21403;DHT22;10862;51.886;17.078;2022-08-01T02:32:51;15.90;99.90
21403;DHT22;10862;51.886;17.078;2022-08-01T02:35:21;15.90;99.90
21403;DHT22;10862;51.886;17.078;2022-08-01T02:37:48;16.00;99.90
21403;DHT22;10862;51.886;17.078;2022-08-01T02:40:15;16.00;99.90
21403;DHT22;10862;51.886;17.078;2022-08-01T02:42:43;16.00;99.90
21403;DHT22;10862;51.886;17.078;2022-08-01T02:45:09;16.00;99.90
21403;DHT22;10862;51.886;17.078;2022-08-01T02:47:35;16.00;99.90
21403;DHT22;10862;51.886;17.078;2022-08-01T02:50:02;16.10;99.90
21403;DHT22;10862;51.886;17.078;2022-08-01T02:52:28;16.10;99.90
21403;DHT22;10862;51.886;17.078;2022-08-01T02:54:55;16.10;99.90
21403;DHT22;10862;51.886;17.078;2022-08-01T02:57:21;16.10;99.90
21403;DHT22;10862;51.886;17.078;2022-08-01T02:59:48;16.20;99.90
21403;DHT22;10862;51.886;17.078;2022-08-01T03:02:14;16.20;99.90
21403;DHT22;10862;51.886;17.078;2022-08-01T03:04:41;16.20;99.90
21403;DHT22;10862;51.886;17.078;2022-08-01T03:07:08;16.30;99.90
21403;DHT22;10862;51.886;17.078;2022-08-01T03:09:38;16.20;99.90
21403;DHT22;10862;51.886;17.078;2022-08-01T03:12:05;16.30;99.90
21403;DHT22;10862;51.886;17.078;2022-08-01T03:14:32;16.30;99.90
21403;DHT22;10862;51.886;17.078;2022-08-01T03:17:00;16.30;99.90
21403;DHT22;10862;51.886;17.078;2022-08-01T03:19:26;16.30;99.90
21403;DHT22;10862;51.886;17.078;2022-08-01T03:21:52;16.40;99.90
21403;DHT22;10862;51.886;17.078;2022-08-01T03:24:18;16.40;99.90
21403;DHT22;10862;51.886;17.078;2022-08-01T03:26:44;16.40;99.90
21403;DHT22;10862;51.886;17.078;2022-08-01T03:29:17;16.40;99.90
21403;DHT22;10862;51.886;17.078;2022-08-01T03:31:45;16.40;99.90
21403;DHT22;10862;51.886;17.078;2022-08-01T03:34:11;16.50;99.90
21403;DHT22;10862;51.886;17.078;2022-08-01T03:36:45;16.40;99.90
21403;DHT22;10862;51.886;17.078;2022-08-01T03:39:11;16.40;99.90
21403;DHT22;10862;51.886;17.078;2022-08-01T03:41:39;16.40;99.90
21403;DHT22;10862;51.886;17.078;2022-08-01T03:44:10;16.40;99.90
21403;DHT22;10862;51.886;17.078;2022-08-01T03:46:48;16.40;99.90
21403;DHT22;10862;51.886;17.078;2022-08-01T03:49:17;16.40;99.90
21403;DHT22;10862;51.886;17.078;2022-08-01T03:51:44;16.40;99.90
21403;DHT22;10862;51.886;17.078;2022-08-01T03:54:10;16.40;99.90
21403;DHT22;10862;51.886;17.078;2022-08-01T03:56:36;16.40;99.90
21403;DHT22;10862;51.886;17.078;2022-08-01T03:59:02;16.40;99.90
21403;DHT22;10862;51.886;17.078;2022-08-01T04:01:28;16.40;99.90
21403;DHT22;10862;51.886;17.078;2022-08-01T04:03:56;16.40;99.90
21403;DHT22;10862;51.886;17.078;2022-08-01T04:06:23;16.40;99.90
21403;DHT22;10862;51.886;17.078;2022-08-01T04:08:48;16.40;99.90
21403;DHT22;10862;51.886;17.078;2022-08-01T04:11:20;16.30;99.90
21403;DHT22;10862;51.886;17.078;2022-08-01T04:13:46;16.40;99.90
21403;DHT22;10862;51.886;17.078;2022-08-01T04:16:12;16.40;99.90
21403;DHT22;10862;51.886;17.078;2022-08-01T04:18:37;16.50;99.90
21403;DHT22;10862;51.886;17.078;2022-08-01T04:21:03;16.50;99.90
21403;DHT22;10862;51.886;17.078;2022-08-01T04:23:28;16.50;99.90
21403;DHT22;10862;51.886;17.078;2022-08-01T04:25:56;16.50;99.90
21403;DHT22;10862;51.886;17.078;2022-08-01T04:28:22;16.60;99.90
21403;DHT22;10862;51.886;17.078;2022-08-01T04:30:49;16.50;99.90
21403;DHT22;10862;51.886;17.078;2022-08-01T04:33:15;16.50;99.90
21403;DHT22;10862;51.886;17.078;2022-08-01T04:35:42;16.60;99.90
21403;DHT22;10862;51.886;17.078;2022-08-01T04:38:10;16.50;99.90
21403;DHT22;10862;51.886;17.078;2022-08-01T04:40:37;16.50;99.90
21403;DHT22;10862;51.886;17.078;2022-08-01T04:43:04;16.60;99.90
21403;DHT22;10862;51.886;17.078;2022-08-01T04:45:29;16.60;99.90
21403;DHT22;10862;51.886;17.078;2022-08-01T04:47:55;16.60;99.90
21403;DHT22;10862;51.886;17.078;2022-08-01T04:50:22;16.60;99.90
21403;DHT22;10862;51.886;17.078;2022-08-01T04:52:47;16.60;99.90
21403;DHT22;10862;51.886;17.078;2022-08-01T04:55:13;16.60;99.90
21403;DHT22;10862;51.886;17.078;2022-08-01T04:57:39;16.60;99.90
21403;DHT22;10862;51.886;17.078;2022-08-01T05:00:06;16.70;99.90
21403;DHT22;10862;51.886;17.078;2022-08-01T05:02:32;16.60;99.90
21403;DHT22;10862;51.886;17.078;2022-08-01T05:04:57;16.70;99.90
21403;DHT22;10862;51.886;17.078;2022-08-01T05:07:23;16.70;99.90
21403;DHT22;10862;51.886;17.078;2022-08-01T05:09:49;16.70;99.90
21403;DHT22;10862;51.886;17.078;2022-08-01T05:12:15;16.90;99.90
21403;DHT22;10862;51.886;17.078;2022-08-01T05:14:41;16.90;99.90
21403;DHT22;10862;51.886;17.078;2022-08-01T05:17:08;16.90;99.90
21403;DHT22;10862;51.886;17.078;2022-08-01T05:19:35;17.00;99.90
21403;DHT22;10862;51.886;17.078;2022-08-01T05:22:01;17.00;99.90
21403;DHT22;10862;51.886;17.078;2022-08-01T05:24:27;17.00;99.90
21403;DHT22;10862;51.886;17.078;2022-08-01T05:26:54;17.00;99.90
21403;DHT22;10862;51.886;17.078;2022-08-01T05:29:19;17.10;99.90
21403;DHT22;10862;51.886;17.078;2022-08-01T05:31:45;17.20;99.90
21403;DHT22;10862;51.886;17.078;2022-08-01T05:34:10;17.30;99.90
21403;DHT22;10862;51.886;17.078;2022-08-01T05:36:36;17.30;99.90
21403;DHT22;10862;51.886;17.078;2022-08-01T05:39:03;17.30;99.90
21403;DHT22;10862;51.886;17.078;2022-08-01T05:41:29;17.40;99.90
21403;DHT22;10862;51.886;17.078;2022-08-01T05:43:54;17.50;99.90
21403;DHT22;10862;51.886;17.078;2022-08-01T05:46:20;17.60;99.90
21403;DHT22;10862;51.886;17.078;2022-08-01T05:48:45;17.60;99.90
21403;DHT22;10862;51.886;17.078;2022-08-01T05:51:11;17.50;99.90
21403;DHT22;10862;51.886;17.078;2022-08-01T05:53:36;17.50;99.90
21403;DHT22;10862;51.886;17.078;2022-08-01T05:56:02;17.40;99.90
21403;DHT22;10862;51.886;17.078;2022-08-01T05:58:27;17.50;99.90
21403;DHT22;10862;51.886;17.078;2022-08-01T06:00:53;17.60;99.90
21403;DHT22;10862;51.886;17.078;2022-08-01T06:03:19;17.60;99.90
21403;DHT22;10862;51.886;17.078;2022-08-01T06:05:44;17.70;99.90
21403;DHT22;10862;51.886;17.078;2022-08-01T06:08:10;17.70;99.90
21403;DHT22;10862;51.886;17.078;2022-08-01T06:10:35;17.80;99.90
21403;DHT22;10862;51.886;17.078;2022-08-01T06:13:01;17.90;99.90
21403;DHT22;10862;51.886;17.078;2022-08-01T06:15:28;17.90;99.90
21403;DHT22;10862;51.886;17.078;2022-08-01T06:17:54;18.00;99.90
21403;DHT22;10862;51.886;17.078;2022-08-01T06:20:20;18.10;99.90
21403;DHT22;10862;51.886;17.078;2022-08-01T06:22:46;18.10;99.90
21403;DHT22;10862;51.886;17.078;2022-08-01T06:25:11;18.10;99.90
21403;DHT22;10862;51.886;17.078;2022-08-01T06:27:37;18.20;99.90
21403;DHT22;10862;51.886;17.078;2022-08-01T06:30:03;18.30;99.90
21403;DHT22;10862;51.886;17.078;2022-08-01T06:32:29;18.30;99.90
21403;DHT22;10862;51.886;17.078;2022-08-01T06:34:54;18.50;99.90
21403;DHT22;10862;51.886;17.078;2022-08-01T06:37:20;18.50;99.90
21403;DHT22;10862;51.886;17.078;2022-08-01T06:39:46;18.50;99.90
21403;DHT22;10862;51.886;17.078;2022-08-01T06:42:12;18.60;99.90
21403;DHT22;10862;51.886;17.078;2022-08-01T06:44:40;18.70;99.90
21403;DHT22;10862;51.886;17.078;2022-08-01T06:47:05;18.60;99.90
21403;DHT22;10862;51.886;17.078;2022-08-01T06:49:30;18.80;99.90
21403;DHT22;10862;51.886;17.078;2022-08-01T06:51:56;18.80;99.90
21403;DHT22;10862;51.886;17.078;2022-08-01T06:54:21;18.90;99.90
21403;DHT22;10862;51.886;17.078;2022-08-01T06:56:47;18.90;99.90
21403;DHT22;10862;51.886;17.078;2022-08-01T06:59:12;19.00;99.90
21403;DHT22;10862;51.886;17.078;2022-08-01T07:01:38;18.90;99.90
21403;DHT22;10862;51.886;17.078;2022-08-01T07:04:03;19.00;99.90
21403;DHT22;10862;51.886;17.078;2022-08-01T07:06:29;18.90;99.90
21403;DHT22;10862;51.886;17.078;2022-08-01T07:08:55;18.90;99.90
21403;DHT22;10862;51.886;17.078;2022-08-01T07:11:21;19.10;99.90
21403;DHT22;10862;51.886;17.078;2022-08-01T07:13:46;19.00;99.90
21403;DHT22;10862;51.886;17.078;2022-08-01T07:16:12;19.10;99.90
21403;DHT22;10862;51.886;17.078;2022-08-01T07:18:38;19.20;99.90
21403;DHT22;10862;51.886;17.078;2022-08-01T07:21:03;19.30;99.90
21403;DHT22;10862;51.886;17.078;2022-08-01T07:23:29;19.50;99.90
21403;DHT22;10862;51.886;17.078;2022-08-01T07:25:54;19.80;99.90
21403;DHT22;10862;51.886;17.078;2022-08-01T07:28:20;19.80;99.90
21403;DHT22;10862;51.886;17.078;2022-08-01T07:30:45;19.90;99.90
21403;DHT22;10862;51.886;17.078;2022-08-01T07:33:11;20.10;99.90
21403;DHT22;10862;51.886;17.078;2022-08-01T07:35:37;20.10;99.90
21403;DHT22;10862;51.886;17.078;2022-08-01T07:38:05;20.20;99.90
21403;DHT22;10862;51.886;17.078;2022-08-01T07:40:30;20.40;99.90
21403;DHT22;10862;51.886;17.078;2022-08-01T07:42:56;20.50;99.90
21403;DHT22;10862;51.886;17.078;2022-08-01T07:45:21;20.60;99.90
21403;DHT22;10862;51.886;17.078;2022-08-01T07:47:47;20.80;99.90
21403;DHT22;10862;51.886;17.078;2022-08-01T07:50:15;20.90;99.90
21403;DHT22;10862;51.886;17.078;2022-08-01T07:52:40;21.20;99.90
21403;DHT22;10862;51.886;17.078;2022-08-01T07:55:06;21.20;99.90
21403;DHT22;10862;51.886;17.078;2022-08-01T07:57:32;21.20;99.90
21403;DHT22;10862;51.886;17.078;2022-08-01T07:59:57;21.20;99.90
21403;DHT22;10862;51.886;17.078;2022-08-01T08:02:23;21.40;99.90
21403;DHT22;10862;51.886;17.078;2022-08-01T08:04:48;21.60;99.90
21403;DHT22;10862;51.886;17.078;2022-08-01T08:07:14;21.80;99.90
21403;DHT22;10862;51.886;17.078;2022-08-01T08:09:40;22.00;99.90
21403;DHT22;10862;51.886;17.078;2022-08-01T08:12:05;22.30;99.90
21403;DHT22;10862;51.886;17.078;2022-08-01T08:14:31;22.00;99.90
21403;DHT22;10862;51.886;17.078;2022-08-01T08:16:56;22.00;99.90
21403;DHT22;10862;51.886;17.078;2022-08-01T08:19:22;21.90;99.90
21403;DHT22;10862;51.886;17.078;2022-08-01T08:21:47;22.00;99.90
21403;DHT22;10862;51.886;17.078;2022-08-01T08:24:13;21.90;99.90
21403;DHT22;10862;51.886;17.078;2022-08-01T08:26:44;21.80;99.90
21403;DHT22;10862;51.886;17.078;2022-08-01T08:29:10;21.90;99.90
21403;DHT22;10862;51.886;17.078;2022-08-01T08:31:35;21.80;99.90
21403;DHT22;10862;51.886;17.078;2022-08-01T08:34:01;21.90;99.90
21403;DHT22;10862;51.886;17.078;2022-08-01T08:36:26;22.00;99.90
21403;DHT22;10862;51.886;17.078;2022-08-01T08:38:52;22.10;99.90
21403;DHT22;10862;51.886;17.078;2022-08-01T08:41:17;22.20;99.90
21403;DHT22;10862;51.886;17.078;2022-08-01T08:43:43;22.20;99.90
21403;DHT22;10862;51.886;17.078;2022-08-01T08:46:08;22.40;99.90
21403;DHT22;10862;51.886;17.078;2022-08-01T08:48:36;22.20;99.90
21403;DHT22;10862;51.886;17.078;2022-08-01T08:51:02;22.40;99.90
21403;DHT22;10862;51.886;17.078;2022-08-01T08:53:27;22.50;99.90
21403;DHT22;10862;51.886;17.078;2022-08-01T08:55:54;22.50;99.90
21403;DHT22;10862;51.886;17.078;2022-08-01T08:58:20;22.70;99.90
21403;DHT22;10862;51.886;17.078;2022-08-01T09:00:46;22.70;99.90
21403;DHT22;10862;51.886;17.078;2022-08-01T09:03:12;22.70;99.90
21403;DHT22;10862;51.886;17.078;2022-08-01T09:05:38;22.90;99.90
21403;DHT22;10862;51.886;17.078;2022-08-01T09:08:06;23.10;99.90
21403;DHT22;10862;51.886;17.078;2022-08-01T09:10:31;23.30;99.90
21403;DHT22;10862;51.886;17.078;2022-08-01T09:15:48;23.30;99.90
21403;DHT22;10862;51.886;17.078;2022-08-01T09:23:34;23.90;99.90
21403;DHT22;10862;51.886;17.078;2022-08-01T09:26:00;23.80;99.90
21403;DHT22;10862;51.886;17.078;2022-08-01T09:28:28;23.60;99.90
21403;DHT22;10862;51.886;17.078;2022-08-01T09:30:55;23.70;99.90
21403;DHT22;10862;51.886;17.078;2022-08-01T09:33:21;23.90;99.90
21403;DHT22;10862;51.886;17.078;2022-08-01T09:35:46;23.80;99.90
21403;DHT22;10862;51.886;17.078;2022-08-01T09:38:19;24.10;99.90
21403;DHT22;10862;51.886;17.078;2022-08-01T09:40:57;24.30;99.90
21403;DHT22;10862;51.886;17.078;2022-08-01T09:43:24;24.40;99.90
21403;DHT22;10862;51.886;17.078;2022-08-01T09:45:51;24.60;99.90
21403;DHT22;10862;51.886;17.078;2022-08-01T09:48:17;25.00;99.90
21403;DHT22;10862;51.886;17.078;2022-08-01T09:50:44;25.40;99.90
21403;DHT22;10862;51.886;17.078;2022-08-01T09:53:10;25.40;99.90
21403;DHT22;10862;51.886;17.078;2022-08-01T09:55:39;25.20;99.90
21403;DHT22;10862;51.886;17.078;2022-08-01T09:58:05;25.00;99.90
21403;DHT22;10862;51.886;17.078;2022-08-01T10:00:31;25.20;99.90
21403;DHT22;10862;51.886;17.078;2022-08-01T10:02:57;25.60;99.90
21403;DHT22;10862;51.886;17.078;2022-08-01T10:05:32;25.70;99.90
21403;DHT22;10862;51.886;17.078;2022-08-01T10:08:02;25.70;99.90
21403;DHT22;10862;51.886;17.078;2022-08-01T10:10:29;25.50;99.90
21403;DHT22;10862;51.886;17.078;2022-08-01T10:12:55;26.00;99.90
21403;DHT22;10862;51.886;17.078;2022-08-01T10:15:21;25.90;99.90
21403;DHT22;10862;51.886;17.078;2022-08-01T10:17:53;26.30;99.90
21403;DHT22;10862;51.886;17.078;2022-08-01T10:20:19;27.30;99.90
21403;DHT22;10862;51.886;17.078;2022-08-01T10:22:45;27.00;99.90
21403;DHT22;10862;51.886;17.078;2022-08-01T10:25:11;26.70;99.90
21403;DHT22;10862;51.886;17.078;2022-08-01T10:27:41;25.70;99.90
21403;DHT22;10862;51.886;17.078;2022-08-01T10:30:08;25.70;99.90
21403;DHT22;10862;51.886;17.078;2022-08-01T10:32:35;25.60;99.90
21403;DHT22;10862;51.886;17.078;2022-08-01T10:35:01;25.60;99.90
21403;DHT22;10862;51.886;17.078;2022-08-01T10:37:26;25.40;99.90
21403;DHT22;10862;51.886;17.078;2022-08-01T10:39:52;25.20;99.90
21403;DHT22;10862;51.886;17.078;2022-08-01T10:42:18;25.10;99.90
21403;DHT22;10862;51.886;17.078;2022-08-01T10:44:44;25.20;99.90
21403;DHT22;10862;51.886;17.078;2022-08-01T10:47:15;25.60;99.90
21403;DHT22;10862;51.886;17.078;2022-08-01T10:49:47;26.00;99.90
21403;DHT22;10862;51.886;17.078;2022-08-01T10:52:17;25.90;99.90
21403;DHT22;10862;51.886;17.078;2022-08-01T10:54:43;25.80;99.90
21403;DHT22;10862;51.886;17.078;2022-08-01T10:57:08;25.70;99.90
21403;DHT22;10862;51.886;17.078;2022-08-01T10:59:36;26.00;99.90
21403;DHT22;10862;51.886;17.078;2022-08-01T11:02:12;26.20;99.90
21403;DHT22;10862;51.886;17.078;2022-08-01T11:07:21;27.20;99.90
21403;DHT22;10862;51.886;17.078;2022-08-01T11:09:47;27.30;99.90
21403;DHT22;10862;51.886;17.078;2022-08-01T11:12:18;27.00;99.90
21403;DHT22;10862;51.886;17.078;2022-08-01T11:17:31;27.40;99.90
21403;DHT22;10862;51.886;17.078;2022-08-01T11:20:04;27.50;98.60
21403;DHT22;10862;51.886;17.078;2022-08-01T11:22:30;27.60;98.70
21403;DHT22;10862;51.886;17.078;2022-08-01T11:24:56;28.00;97.30
21403;DHT22;10862;51.886;17.078;2022-08-01T11:27:23;27.60;95.70
21403;DHT22;10862;51.886;17.078;2022-08-01T11:32:33;26.70;99.90
21403;DHT22;10862;51.886;17.078;2022-08-01T11:34:59;26.30;99.90
21403;DHT22;10862;51.886;17.078;2022-08-01T11:37:25;26.90;99.90
21403;DHT22;10862;51.886;17.078;2022-08-01T11:40:14;27.90;97.60
21403;DHT22;10862;51.886;17.078;2022-08-01T11:42:39;29.60;92.90
21403;DHT22;10862;51.886;17.078;2022-08-01T11:45:05;30.20;86.90
21403;DHT22;10862;51.886;17.078;2022-08-01T11:53:11;27.90;91.10
21403;DHT22;10862;51.886;17.078;2022-08-01T11:55:46;27.80;93.50
21403;DHT22;10862;51.886;17.078;2022-08-01T11:58:14;27.70;91.70
21403;DHT22;10862;51.886;17.078;2022-08-01T12:00:39;27.20;94.70
21403;DHT22;10862;51.886;17.078;2022-08-01T12:03:06;27.10;95.70
21403;DHT22;10862;51.886;17.078;2022-08-01T12:05:32;26.90;96.20
21403;DHT22;10862;51.886;17.078;2022-08-01T12:07:59;26.60;97.40
21403;DHT22;10862;51.886;17.078;2022-08-01T12:10:26;26.50;99.50
21403;DHT22;10862;51.886;17.078;2022-08-01T12:12:54;26.50;99.90
21403;DHT22;10862;51.886;17.078;2022-08-01T12:15:21;26.40;99.90
21403;DHT22;10862;51.886;17.078;2022-08-01T12:17:54;26.00;99.90
21403;DHT22;10862;51.886;17.078;2022-08-01T12:20:21;25.90;99.90
21403;DHT22;10862;51.886;17.078;2022-08-01T12:22:47;25.90;99.90
21403;DHT22;10862;51.886;17.078;2022-08-01T12:25:14;25.70;99.90
21403;DHT22;10862;51.886;17.078;2022-08-01T12:27:40;25.60;99.90
21403;DHT22;10862;51.886;17.078;2022-08-01T12:30:06;25.60;99.90
21403;DHT22;10862;51.886;17.078;2022-08-01T12:32:33;25.60;99.90
21403;DHT22;10862;51.886;17.078;2022-08-01T12:35:11;25.60;99.90
21403;DHT22;10862;51.886;17.078;2022-08-01T12:37:40;25.50;99.90
21403;DHT22;10862;51.886;17.078;2022-08-01T12:40:19;25.50;99.90
21403;DHT22;10862;51.886;17.078;2022-08-01T12:42:46;25.60;99.90
21403;DHT22;10862;51.886;17.078;2022-08-01T12:45:17;25.40;99.90
21403;DHT22;10862;51.886;17.078;2022-08-01T12:47:43;25.40;99.90
21403;DHT22;10862;51.886;17.078;2022-08-01T12:50:13;25.60;99.90
21403;DHT22;10862;51.886;17.078;2022-08-01T12:52:39;25.40;99.90
21403;DHT22;10862;51.886;17.078;2022-08-01T12:55:09;25.40;99.90
21403;DHT22;10862;51.886;17.078;2022-08-01T12:57:36;25.40;99.90
21403;DHT22;10862;51.886;17.078;2022-08-01T13:00:09;25.30;99.90
21403;DHT22;10862;51.886;17.078;2022-08-01T13:02:35;25.50;99.90
21403;DHT22;10862;51.886;17.078;2022-08-01T13:05:00;26.20;99.90
21403;DHT22;10862;51.886;17.078;2022-08-01T13:10:00;26.70;99.90
21403;DHT22;10862;51.886;17.078;2022-08-01T13:12:26;26.40;99.90
21403;DHT22;10862;51.886;17.078;2022-08-01T13:14:51;25.70;99.90
21403;DHT22;10862;51.886;17.078;2022-08-01T13:17:33;25.80;99.90
21403;DHT22;10862;51.886;17.078;2022-08-01T13:20:01;25.80;99.90
21403;DHT22;10862;51.886;17.078;2022-08-01T13:22:33;26.00;99.90
21403;DHT22;10862;51.886;17.078;2022-08-01T13:25:11;26.00;99.90
21403;DHT22;10862;51.886;17.078;2022-08-01T13:27:37;26.00;99.90
21403;DHT22;10862;51.886;17.078;2022-08-01T13:30:15;25.90;99.90
21403;DHT22;10862;51.886;17.078;2022-08-01T13:32:41;25.90;99.90
21403;DHT22;10862;51.886;17.078;2022-08-01T13:35:11;25.80;99.90
21403;DHT22;10862;51.886;17.078;2022-08-01T13:37:38;25.90;99.90
21403;DHT22;10862;51.886;17.078;2022-08-01T13:40:05;25.60;99.90
21403;DHT22;10862;51.886;17.078;2022-08-01T13:42:30;25.40;99.90
21403;DHT22;10862;51.886;17.078;2022-08-01T13:44:57;25.80;99.90
21403;DHT22;10862;51.886;17.078;2022-08-01T13:47:22;25.80;99.90
21403;DHT22;10862;51.886;17.078;2022-08-01T13:49:48;25.80;99.90
21403;DHT22;10862;51.886;17.078;2022-08-01T13:52:13;25.60;99.90
21403;DHT22;10862;51.886;17.078;2022-08-01T13:54:39;25.80;99.90
21403;DHT22;10862;51.886;17.078;2022-08-01T13:57:04;26.20;99.90
21403;DHT22;10862;51.886;17.078;2022-08-01T13:59:30;26.10;99.90
21403;DHT22;10862;51.886;17.078;2022-08-01T14:01:55;26.00;99.90
21403;DHT22;10862;51.886;17.078;2022-08-01T14:04:21;25.90;99.90
21403;DHT22;10862;51.886;17.078;2022-08-01T14:06:46;25.70;99.90
21403;DHT22;10862;51.886;17.078;2022-08-01T14:09:12;25.60;99.90
21403;DHT22;10862;51.886;17.078;2022-08-01T14:11:37;25.70;99.90
21403;DHT22;10862;51.886;17.078;2022-08-01T14:14:03;25.80;99.90
21403;DHT22;10862;51.886;17.078;2022-08-01T14:16:29;25.90;99.90
21403;DHT22;10862;51.886;17.078;2022-08-01T14:18:54;26.20;99.90
21403;DHT22;10862;51.886;17.078;2022-08-01T14:21:20;26.40;99.90
21403;DHT22;10862;51.886;17.078;2022-08-01T14:23:45;26.40;99.90
21403;DHT22;10862;51.886;17.078;2022-08-01T14:26:11;26.30;99.90
21403;DHT22;10862;51.886;17.078;2022-08-01T14:28:37;26.40;99.90
21403;DHT22;10862;51.886;17.078;2022-08-01T14:31:02;26.20;99.90
21403;DHT22;10862;51.886;17.078;2022-08-01T14:33:28;26.10;99.90
21403;DHT22;10862;51.886;17.078;2022-08-01T14:35:54;26.00;99.90
21403;DHT22;10862;51.886;17.078;2022-08-01T14:38:20;26.10;99.90
21403;DHT22;10862;51.886;17.078;2022-08-01T14:40:45;26.00;99.90
21403;DHT22;10862;51.886;17.078;2022-08-01T14:43:17;26.20;99.90
21403;DHT22;10862;51.886;17.078;2022-08-01T14:45:42;26.00;99.90
21403;DHT22;10862;51.886;17.078;2022-08-01T14:48:07;25.80;99.90
21403;DHT22;10862;51.886;17.078;2022-08-01T14:50:33;25.90;99.90
21403;DHT22;10862;51.886;17.078;2022-08-01T14:52:58;26.10;99.90
21403;DHT22;10862;51.886;17.078;2022-08-01T14:55:24;25.90;99.90
21403;DHT22;10862;51.886;17.078;2022-08-01T14:57:52;26.00;99.90
21403;DHT22;10862;51.886;17.078;2022-08-01T15:00:17;25.90;99.90
21403;DHT22;10862;51.886;17.078;2022-08-01T15:02:43;25.90;99.90
21403;DHT22;10862;51.886;17.078;2022-08-01T15:05:09;26.20;99.90
21403;DHT22;10862;51.886;17.078;2022-08-01T15:07:38;26.60;99.90
21403;DHT22;10862;51.886;17.078;2022-08-01T15:10:03;26.30;99.90
21403;DHT22;10862;51.886;17.078;2022-08-01T15:12:29;26.10;99.90
21403;DHT22;10862;51.886;17.078;2022-08-01T15:14:55;26.00;99.90
21403;DHT22;10862;51.886;17.078;2022-08-01T15:17:21;25.80;99.90
21403;DHT22;10862;51.886;17.078;2022-08-01T15:19:50;25.70;99.90
21403;DHT22;10862;51.886;17.078;2022-08-01T15:22:17;25.60;99.90
21403;DHT22;10862;51.886;17.078;2022-08-01T15:24:43;25.60;99.90
21403;DHT22;10862;51.886;17.078;2022-08-01T15:27:09;25.50;99.90
21403;DHT22;10862;51.886;17.078;2022-08-01T15:29:35;25.40;99.90
21403;DHT22;10862;51.886;17.078;2022-08-01T15:32:01;24.90;99.90
21403;DHT22;10862;51.886;17.078;2022-08-01T15:34:28;24.30;99.90
21403;DHT22;10862;51.886;17.078;2022-08-01T15:36:53;23.80;99.90
21403;DHT22;10862;51.886;17.078;2022-08-01T15:39:19;23.20;99.90
21403;DHT22;10862;51.886;17.078;2022-08-01T15:41:44;22.60;99.90
21403;DHT22;10862;51.886;17.078;2022-08-01T15:44:10;22.30;99.90
21403;DHT22;10862;51.886;17.078;2022-08-01T15:46:35;22.00;99.90